sensor_id;sensor_type;location;lat;lon;timestamp;pressure;altitude;pressure_sealevel;temperature;humidity
3444;BME280;1736;52.068;6.968;2023-01-30T00:01:41;101150.03;;;3.64;100.00
3444;BME280;1736;52.068;6.968;2023-01-30T00:04:11;101142.84;;;3.68;100.00
3444;BME280;1736;52.068;6.968;2023-01-30T00:06:37;101127.09;;;3.68;100.00
3444;BME280;1736;52.068;6.968;2023-01-30T00:09:04;101121.97;;;3.66;100.00
3444;BME280;1736;52.068;6.968;2023-01-30T00:11:30;101118.03;;;3.75;100.00
3444;BME280;1736;52.068;6.968;2023-01-30T00:13:58;101126.28;;;3.67;100.00
3444;BME280;1736;52.068;6.968;2023-01-30T00:16:24;101121.88;;;3.68;100.00
3444;BME280;1736;52.068;6.968;2023-01-30T00:18:51;101121.38;;;3.78;100.00
3444;BME280;1736;52.068;6.968;2023-01-30T00:21:19;101114.78;;;3.70;100.00
3444;BME280;1736;52.068;6.968;2023-01-30T00:23:45;101108.59;;;3.71;100.00
3444;BME280;1736;52.068;6.968;2023-01-30T00:26:12;101106.53;;;3.77;100.00
3444;BME280;1736;52.068;6.968;2023-01-30T00:28:39;101108.13;;;3.80;100.00
3444;BME280;1736;52.068;6.968;2023-01-30T00:31:06;101107.59;;;3.90;100.00
3444;BME280;1736;52.068;6.968;2023-01-30T00:33:35;101106.78;;;3.90;100.00
3444;BME280;1736;52.068;6.968;2023-01-30T00:36:02;101098.44;;;3.82;100.00
3444;BME280;1736;52.068;6.968;2023-01-30T00:38:30;101082.59;;;3.83;100.00
3444;BME280;1736;52.068;6.968;2023-01-30T00:40:56;101076.97;;;3.91;100.00
3444;BME280;1736;52.068;6.968;2023-01-30T00:43:23;101080.53;;;3.90;100.00
3444;BME280;1736;52.068;6.968;2023-01-30T00:46:12;101078.66;;;3.92;100.00
3444;BME280;1736;52.068;6.968;2023-01-30T00:48:58;101082.00;;;3.95;100.00
3444;BME280;1736;52.068;6.968;2023-01-30T00:51:24;101068.69;;;3.98;100.00
3444;BME280;1736;52.068;6.968;2023-01-30T00:53:52;101066.47;;;3.91;100.00
3444;BME280;1736;52.068;6.968;2023-01-30T00:56:19;101052.25;;;3.95;100.00
3444;BME280;1736;52.068;6.968;2023-01-30T00:58:45;101040.28;;;3.89;100.00
3444;BME280;1736;52.068;6.968;2023-01-30T01:01:12;101036.66;;;3.92;100.00
3444;BME280;1736;52.068;6.968;2023-01-30T01:03:38;101019.34;;;3.88;100.00
3444;BME280;1736;52.068;6.968;2023-01-30T01:06:05;101031.78;;;3.84;100.00
3444;BME280;1736;52.068;6.968;2023-01-30T01:08:31;101030.94;;;3.84;100.00
3444;BME280;1736;52.068;6.968;2023-01-30T01:11:00;101005.00;;;3.78;100.00
3444;BME280;1736;52.068;6.968;2023-01-30T01:13:27;101016.28;;;3.80;100.00
3444;BME280;1736;52.068;6.968;2023-01-30T01:15:53;101010.19;;;3.79;100.00
3444;BME280;1736;52.068;6.968;2023-01-30T01:18:20;100996.13;;;3.80;100.00
3444;BME280;1736;52.068;6.968;2023-01-30T01:20:46;100998.69;;;3.82;100.00
3444;BME280;1736;52.068;6.968;2023-01-30T01:23:13;101004.47;;;3.88;100.00
3444;BME280;1736;52.068;6.968;2023-01-30T01:25:40;100994.03;;;3.87;100.00
3444;BME280;1736;52.068;6.968;2023-01-30T01:28:08;100994.97;;;3.86;100.00
3444;BME280;1736;52.068;6.968;2023-01-30T01:30:34;100979.06;;;3.89;100.00
3444;BME280;1736;52.068;6.968;2023-01-30T01:33:01;100973.63;;;3.92;100.00
3444;BME280;1736;52.068;6.968;2023-01-30T01:35:27;100975.50;;;3.90;100.00
3444;BME280;1736;52.068;6.968;2023-01-30T01:37:54;100962.84;;;3.98;100.00
3444;BME280;1736;52.068;6.968;2023-01-30T01:40:22;100960.38;;;3.95;100.00
3444;BME280;1736;52.068;6.968;2023-01-30T01:43:18;100956.78;;;3.96;100.00
3444;BME280;1736;52.068;6.968;2023-01-30T01:45:47;100953.34;;;3.95;100.00
3444;BME280;1736;52.068;6.968;2023-01-30T01:48:19;100947.00;;;3.99;100.00
3444;BME280;1736;52.068;6.968;2023-01-30T01:50:50;100945.22;;;4.00;100.00
3444;BME280;1736;52.068;6.968;2023-01-30T01:53:23;100929.53;;;3.98;100.00
3444;BME280;1736;52.068;6.968;2023-01-30T01:55:52;100933.81;;;4.01;100.00
3444;BME280;1736;52.068;6.968;2023-01-30T01:58:25;100913.13;;;4.10;100.00
3444;BME280;1736;52.068;6.968;2023-01-30T02:00:56;100925.72;;;4.04;100.00
3444;BME280;1736;52.068;6.968;2023-01-30T02:03:25;100921.88;;;4.11;100.00
3444;BME280;1736;52.068;6.968;2023-01-30T02:05:56;100911.00;;;4.17;100.00
3444;BME280;1736;52.068;6.968;2023-01-30T02:08:27;100904.66;;;4.21;100.00
3444;BME280;1736;52.068;6.968;2023-01-30T02:11:00;100895.25;;;4.17;100.00
3444;BME280;1736;52.068;6.968;2023-01-30T02:13:30;100897.34;;;4.27;100.00
3444;BME280;1736;52.068;6.968;2023-01-30T02:15:58;100898.00;;;4.31;100.00
3444;BME280;1736;52.068;6.968;2023-01-30T02:18:26;100895.03;;;4.37;100.00
3444;BME280;1736;52.068;6.968;2023-01-30T02:21:04;100893.09;;;4.40;100.00
3444;BME280;1736;52.068;6.968;2023-01-30T02:27:13;100907.47;;;4.49;100.00
3444;BME280;1736;52.068;6.968;2023-01-30T02:30:16;100899.44;;;4.52;100.00
3444;BME280;1736;52.068;6.968;2023-01-30T02:32:55;100905.38;;;4.55;100.00
3444;BME280;1736;52.068;6.968;2023-01-30T02:35:31;100906.22;;;4.56;100.00
3444;BME280;1736;52.068;6.968;2023-01-30T02:38:09;100903.06;;;4.65;100.00
3444;BME280;1736;52.068;6.968;2023-01-30T02:40:49;100884.50;;;4.68;100.00
3444;BME280;1736;52.068;6.968;2023-01-30T02:43:25;100885.28;;;4.70;100.00
3444;BME280;1736;52.068;6.968;2023-01-30T02:45:58;100879.19;;;4.69;100.00
3444;BME280;1736;52.068;6.968;2023-01-30T02:48:33;100876.47;;;4.71;100.00
3444;BME280;1736;52.068;6.968;2023-01-30T02:51:03;100867.72;;;4.70;100.00
3444;BME280;1736;52.068;6.968;2023-01-30T02:53:31;100861.44;;;4.73;100.00
3444;BME280;1736;52.068;6.968;2023-01-30T02:55:58;100863.91;;;4.76;100.00
3444;BME280;1736;52.068;6.968;2023-01-30T02:58:27;100855.69;;;4.66;100.00
3444;BME280;1736;52.068;6.968;2023-01-30T03:01:11;100847.47;;;4.72;100.00
3444;BME280;1736;52.068;6.968;2023-01-30T03:03:56;100855.28;;;4.74;100.00
3444;BME280;1736;52.068;6.968;2023-01-30T03:06:33;100844.38;;;4.80;100.00
3444;BME280;1736;52.068;6.968;2023-01-30T03:09:14;100838.00;;;4.84;100.00
3444;BME280;1736;52.068;6.968;2023-01-30T03:11:48;100839.53;;;4.88;100.00
3444;BME280;1736;52.068;6.968;2023-01-30T03:14:24;100834.50;;;4.99;100.00
3444;BME280;1736;52.068;6.968;2023-01-30T03:16:54;100840.69;;;4.98;100.00
3444;BME280;1736;52.068;6.968;2023-01-30T03:19:23;100837.31;;;4.96;100.00
3444;BME280;1736;52.068;6.968;2023-01-30T03:21:51;100833.41;;;5.03;100.00
3444;BME280;1736;52.068;6.968;2023-01-30T03:24:18;100818.66;;;5.14;100.00
3444;BME280;1736;52.068;6.968;2023-01-30T03:26:48;100822.72;;;5.20;100.00
3444;BME280;1736;52.068;6.968;2023-01-30T03:29:16;100820.66;;;5.25;100.00
3444;BME280;1736;52.068;6.968;2023-01-30T03:31:42;100806.38;;;5.29;100.00
3444;BME280;1736;52.068;6.968;2023-01-30T03:34:09;100812.03;;;5.37;100.00
3444;BME280;1736;52.068;6.968;2023-01-30T03:36:37;100800.66;;;5.36;100.00
3444;BME280;1736;52.068;6.968;2023-01-30T03:39:04;100799.34;;;5.43;100.00
3444;BME280;1736;52.068;6.968;2023-01-30T03:41:30;100808.09;;;5.44;100.00
3444;BME280;1736;52.068;6.968;2023-01-30T03:43:57;100809.88;;;5.43;100.00
3444;BME280;1736;52.068;6.968;2023-01-30T03:46:23;100816.00;;;5.44;100.00
3444;BME280;1736;52.068;6.968;2023-01-30T03:48:50;100813.53;;;5.41;100.00
3444;BME280;1736;52.068;6.968;2023-01-30T03:51:16;100802.91;;;5.42;100.00
3444;BME280;1736;52.068;6.968;2023-01-30T03:53:44;100801.03;;;5.44;100.00
3444;BME280;1736;52.068;6.968;2023-01-30T03:56:11;100794.72;;;5.47;100.00
3444;BME280;1736;52.068;6.968;2023-01-30T03:58:37;100789.38;;;5.48;100.00
3444;BME280;1736;52.068;6.968;2023-01-30T04:01:04;100779.25;;;5.42;100.00
3444;BME280;1736;52.068;6.968;2023-01-30T04:03:31;100802.53;;;5.48;100.00
3444;BME280;1736;52.068;6.968;2023-01-30T04:05:58;100794.38;;;5.53;100.00
3444;BME280;1736;52.068;6.968;2023-01-30T04:08:25;100801.78;;;5.46;100.00
3444;BME280;1736;52.068;6.968;2023-01-30T04:10:53;100806.88;;;5.49;100.00
3444;BME280;1736;52.068;6.968;2023-01-30T04:13:19;100797.94;;;5.52;100.00
3444;BME280;1736;52.068;6.968;2023-01-30T04:15:46;100793.34;;;5.55;100.00
3444;BME280;1736;52.068;6.968;2023-01-30T04:18:12;100814.38;;;5.55;100.00
3444;BME280;1736;52.068;6.968;2023-01-30T04:20:39;100809.22;;;5.54;100.00
3444;BME280;1736;52.068;6.968;2023-01-30T04:23:06;100810.91;;;5.55;100.00
3444;BME280;1736;52.068;6.968;2023-01-30T04:25:32;100815.03;;;5.59;100.00
3444;BME280;1736;52.068;6.968;2023-01-30T04:28:00;100811.09;;;5.52;100.00
3444;BME280;1736;52.068;6.968;2023-01-30T04:30:27;100802.53;;;5.48;100.00
3444;BME280;1736;52.068;6.968;2023-01-30T04:32:53;100806.88;;;5.49;100.00
3444;BME280;1736;52.068;6.968;2023-01-30T04:35:20;100808.25;;;5.55;100.00
3444;BME280;1736;52.068;6.968;2023-01-30T04:37:46;100811.09;;;5.52;100.00
3444;BME280;1736;52.068;6.968;2023-01-30T04:40:13;100792.47;;;5.55;100.00
3444;BME280;1736;52.068;6.968;2023-01-30T04:42:40;100796.91;;;5.54;100.00
3444;BME280;1736;52.068;6.968;2023-01-30T04:45:09;100791.56;;;5.56;100.00
3444;BME280;1736;52.068;6.968;2023-01-30T04:47:35;100804.50;;;5.59;100.00
3444;BME280;1736;52.068;6.968;2023-01-30T04:50:02;100802.66;;;5.61;100.00
3444;BME280;1736;52.068;6.968;2023-01-30T04:52:28;100804.88;;;5.67;100.00
3444;BME280;1736;52.068;6.968;2023-01-30T04:54:55;100812.03;;;5.65;100.00
3444;BME280;1736;52.068;6.968;2023-01-30T04:57:22;100805.00;;;5.66;100.00
3444;BME280;1736;52.068;6.968;2023-01-30T04:59:48;100799.63;;;5.67;100.00
3444;BME280;1736;52.068;6.968;2023-01-30T05:02:16;100790.81;;;5.68;100.00
3444;BME280;1736;52.068;6.968;2023-01-30T05:04:42;100793.22;;;5.71;100.00
3444;BME280;1736;52.068;6.968;2023-01-30T05:07:09;100789.59;;;5.74;100.00
3444;BME280;1736;52.068;6.968;2023-01-30T05:09:36;100777.44;;;5.71;100.00
3444;BME280;1736;52.068;6.968;2023-01-30T05:12:03;100780.66;;;5.76;100.00
3444;BME280;1736;52.068;6.968;2023-01-30T05:14:29;100784.78;;;5.80;100.00
3444;BME280;1736;52.068;6.968;2023-01-30T05:16:56;100784.00;;;5.78;100.00
3444;BME280;1736;52.068;6.968;2023-01-30T05:19:24;100770.84;;;5.78;100.00
3444;BME280;1736;52.068;6.968;2023-01-30T05:21:50;100780.19;;;5.84;100.00
3444;BME280;1736;52.068;6.968;2023-01-30T05:24:17;100791.38;;;5.87;100.00
3444;BME280;1736;52.068;6.968;2023-01-30T05:26:43;100782.81;;;5.84;100.00
3444;BME280;1736;52.068;6.968;2023-01-30T05:29:10;100774.66;;;5.88;100.00
3444;BME280;1736;52.068;6.968;2023-01-30T05:31:36;100764.28;;;5.85;100.00
3444;BME280;1736;52.068;6.968;2023-01-30T05:34:03;100759.56;;;5.90;100.00
3444;BME280;1736;52.068;6.968;2023-01-30T05:36:31;100766.69;;;6.02;100.00
3444;BME280;1736;52.068;6.968;2023-01-30T05:38:57;100773.59;;;5.91;100.00
3444;BME280;1736;52.068;6.968;2023-01-30T05:41:24;100765.19;;;5.98;100.00
3444;BME280;1736;52.068;6.968;2023-01-30T05:43:51;100762.75;;;5.95;100.00
3444;BME280;1736;52.068;6.968;2023-01-30T05:46:17;100764.25;;;5.99;100.00
3444;BME280;1736;52.068;6.968;2023-01-30T05:48:45;100762.75;;;5.95;100.00
3444;BME280;1736;52.068;6.968;2023-01-30T05:51:16;100757.31;;;5.98;100.00
3444;BME280;1736;52.068;6.968;2023-01-30T05:53:45;100757.84;;;6.03;100.00
3444;BME280;1736;52.068;6.968;2023-01-30T05:56:11;100775.66;;;6.00;100.00
3444;BME280;1736;52.068;6.968;2023-01-30T05:58:38;100785.31;;;6.13;100.00
3444;BME280;1736;52.068;6.968;2023-01-30T06:01:07;100794.72;;;6.03;100.00
3444;BME280;1736;52.068;6.968;2023-01-30T06:03:34;100797.66;;;5.71;100.00
3444;BME280;1736;52.068;6.968;2023-01-30T06:06:01;100794.16;;;5.42;100.00
3444;BME280;1736;52.068;6.968;2023-01-30T06:08:28;100791.03;;;5.07;100.00
3444;BME280;1736;52.068;6.968;2023-01-30T06:10:59;100776.91;;;4.94;100.00
3444;BME280;1736;52.068;6.968;2023-01-30T06:13:26;100789.75;;;4.85;100.00
3444;BME280;1736;52.068;6.968;2023-01-30T06:15:53;100794.84;;;4.88;100.00
3444;BME280;1736;52.068;6.968;2023-01-30T06:18:19;100781.69;;;4.88;100.00
3444;BME280;1736;52.068;6.968;2023-01-30T06:20:46;100808.28;;;4.97;100.00
3444;BME280;1736;52.068;6.968;2023-01-30T06:23:13;100814.97;;;5.03;100.00
3444;BME280;1736;52.068;6.968;2023-01-30T06:25:42;100806.63;;;5.10;100.00
3444;BME280;1736;52.068;6.968;2023-01-30T06:28:10;100822.00;;;5.32;100.00
3444;BME280;1736;52.068;6.968;2023-01-30T06:30:37;100824.56;;;5.18;100.00
3444;BME280;1736;52.068;6.968;2023-01-30T06:33:04;100827.44;;;5.29;100.00
3444;BME280;1736;52.068;6.968;2023-01-30T06:35:30;100828.50;;;5.54;100.00
3444;BME280;1736;52.068;6.968;2023-01-30T06:37:57;100835.81;;;5.63;100.00
3444;BME280;1736;52.068;6.968;2023-01-30T06:40:23;100838.75;;;5.73;100.00
3444;BME280;1736;52.068;6.968;2023-01-30T06:42:50;100843.13;;;5.88;100.00
3444;BME280;1736;52.068;6.968;2023-01-30T06:45:18;100847.63;;;5.86;100.00
3444;BME280;1736;52.068;6.968;2023-01-30T06:47:45;100857.00;;;5.76;100.00
3444;BME280;1736;52.068;6.968;2023-01-30T06:50:13;100844.44;;;5.81;100.00
3444;BME280;1736;52.068;6.968;2023-01-30T06:52:40;100841.50;;;5.86;100.00
3444;BME280;1736;52.068;6.968;2023-01-30T06:55:08;100841.78;;;5.81;100.00
3444;BME280;1736;52.068;6.968;2023-01-30T06:57:35;100846.31;;;5.93;100.00
3444;BME280;1736;52.068;6.968;2023-01-30T07:00:03;100851.75;;;5.90;100.00
3444;BME280;1736;52.068;6.968;2023-01-30T07:02:31;100861.31;;;5.77;100.00
3444;BME280;1736;52.068;6.968;2023-01-30T07:04:59;100852.66;;;5.75;100.00
3444;BME280;1736;52.068;6.968;2023-01-30T07:07:26;100860.66;;;5.74;100.00
3444;BME280;1736;52.068;6.968;2023-01-30T07:09:52;100857.75;;;5.78;100.00
3444;BME280;1736;52.068;6.968;2023-01-30T07:12:19;100858.97;;;5.72;100.00
3444;BME280;1736;52.068;6.968;2023-01-30T07:14:46;100852.47;;;5.78;100.00
3444;BME280;1736;52.068;6.968;2023-01-30T07:17:12;100861.28;;;5.63;100.00
3444;BME280;1736;52.068;6.968;2023-01-30T07:19:41;100853.97;;;5.54;100.00
3444;BME280;1736;52.068;6.968;2023-01-30T07:22:08;100866.38;;;5.52;100.00
3444;BME280;1736;52.068;6.968;2023-01-30T07:24:35;100871.44;;;5.55;100.00
3444;BME280;1736;52.068;6.968;2023-01-30T07:27:01;100876.78;;;5.39;100.00
3444;BME280;1736;52.068;6.968;2023-01-30T07:29:28;100878.59;;;5.39;100.00
3444;BME280;1736;52.068;6.968;2023-01-30T07:31:55;100882.50;;;5.32;100.00
3444;BME280;1736;52.068;6.968;2023-01-30T07:34:21;100887.41;;;5.38;100.00
3444;BME280;1736;52.068;6.968;2023-01-30T07:36:49;100883.72;;;5.40;100.00
3444;BME280;1736;52.068;6.968;2023-01-30T07:39:16;100893.13;;;5.30;100.00
3444;BME280;1736;52.068;6.968;2023-01-30T07:41:42;100894.63;;;5.34;100.00
3444;BME280;1736;52.068;6.968;2023-01-30T07:44:09;100893.25;;;5.43;99.92
3444;BME280;1736;52.068;6.968;2023-01-30T07:46:35;100901.16;;;5.43;100.00
3444;BME280;1736;52.068;6.968;2023-01-30T07:49:02;100890.63;;;5.43;99.99
3444;BME280;1736;52.068;6.968;2023-01-30T07:51:29;100897.28;;;5.48;98.66
3444;BME280;1736;52.068;6.968;2023-01-30T07:53:57;100894.66;;;5.48;99.50
3444;BME280;1736;52.068;6.968;2023-01-30T07:56:25;100890.41;;;5.46;99.37
3444;BME280;1736;52.068;6.968;2023-01-30T07:58:53;100888.06;;;5.41;100.00
3444;BME280;1736;52.068;6.968;2023-01-30T08:01:20;100900.88;;;5.47;99.42
3444;BME280;1736;52.068;6.968;2023-01-30T08:03:47;100898.72;;;5.54;99.01
3444;BME280;1736;52.068;6.968;2023-01-30T08:06:14;100902.19;;;5.54;99.61
3444;BME280;1736;52.068;6.968;2023-01-30T08:08:42;100886.84;;;5.47;99.46
3444;BME280;1736;52.068;6.968;2023-01-30T08:11:10;100908.66;;;5.49;100.00
3444;BME280;1736;52.068;6.968;2023-01-30T08:13:37;100901.50;;;5.51;99.04
3444;BME280;1736;52.068;6.968;2023-01-30T08:16:05;100900.69;;;5.50;99.08
3444;BME280;1736;52.068;6.968;2023-01-30T08:18:33;100898.59;;;5.41;99.54
3444;BME280;1736;52.068;6.968;2023-01-30T08:21:00;100913.69;;;5.53;98.19
3444;BME280;1736;52.068;6.968;2023-01-30T08:23:27;100906.78;;;5.51;99.13
3444;BME280;1736;52.068;6.968;2023-01-30T08:25:54;100923.03;;;5.43;98.70
3444;BME280;1736;52.068;6.968;2023-01-30T08:28:22;100923.56;;;5.34;98.53
3444;BME280;1736;52.068;6.968;2023-01-30T08:30:49;100932.50;;;5.32;99.49
3444;BME280;1736;52.068;6.968;2023-01-30T08:33:17;100931.56;;;5.33;98.73
3444;BME280;1736;52.068;6.968;2023-01-30T08:35:44;100945.25;;;5.24;98.66
3444;BME280;1736;52.068;6.968;2023-01-30T08:38:11;100942.78;;;5.21;99.36
3444;BME280;1736;52.068;6.968;2023-01-30T08:40:37;100935.38;;;5.27;98.05
3444;BME280;1736;52.068;6.968;2023-01-30T08:43:04;100954.38;;;5.32;98.21
3444;BME280;1736;52.068;6.968;2023-01-30T08:45:33;100951.00;;;5.30;98.63
3444;BME280;1736;52.068;6.968;2023-01-30T08:48:00;100946.78;;;5.28;98.73
3444;BME280;1736;52.068;6.968;2023-01-30T08:50:27;100944.75;;;5.17;98.80
3444;BME280;1736;52.068;6.968;2023-01-30T08:52:54;100955.94;;;5.21;98.59
3444;BME280;1736;52.068;6.968;2023-01-30T08:55:21;100952.44;;;5.36;96.89
3444;BME280;1736;52.068;6.968;2023-01-30T08:57:48;100957.25;;;5.43;95.43
3444;BME280;1736;52.068;6.968;2023-01-30T09:00:15;100949.19;;;5.46;95.02
3444;BME280;1736;52.068;6.968;2023-01-30T09:02:43;100955.31;;;5.61;94.48
3444;BME280;1736;52.068;6.968;2023-01-30T09:05:10;100960.22;;;5.67;93.69
3444;BME280;1736;52.068;6.968;2023-01-30T09:07:36;100951.78;;;5.76;92.80
3444;BME280;1736;52.068;6.968;2023-01-30T09:10:04;100947.88;;;5.83;91.89
3444;BME280;1736;52.068;6.968;2023-01-30T09:12:30;100948.25;;;5.91;91.43
3444;BME280;1736;52.068;6.968;2023-01-30T09:14:57;100944.09;;;5.87;90.83
3444;BME280;1736;52.068;6.968;2023-01-30T09:17:24;100952.13;;;6.00;90.09
3444;BME280;1736;52.068;6.968;2023-01-30T09:19:52;100943.66;;;6.09;89.20
3444;BME280;1736;52.068;6.968;2023-01-30T09:22:19;100932.63;;;6.16;88.46
3444;BME280;1736;52.068;6.968;2023-01-30T09:24:46;100941.41;;;6.17;87.90
3444;BME280;1736;52.068;6.968;2023-01-30T09:27:12;100946.41;;;6.21;88.17
3444;BME280;1736;52.068;6.968;2023-01-30T09:29:39;100946.47;;;6.34;87.23
3444;BME280;1736;52.068;6.968;2023-01-30T09:32:05;100949.13;;;6.34;86.18
3444;BME280;1736;52.068;6.968;2023-01-30T09:34:32;100949.97;;;6.34;87.57
3444;BME280;1736;52.068;6.968;2023-01-30T09:37:00;100947.16;;;6.37;87.44
3444;BME280;1736;52.068;6.968;2023-01-30T09:39:27;100940.16;;;6.36;86.17
3444;BME280;1736;52.068;6.968;2023-01-30T09:42:13;100948.66;;;6.41;84.49
3444;BME280;1736;52.068;6.968;2023-01-30T09:47:43;100940.16;;;6.36;85.79
3444;BME280;1736;52.068;6.968;2023-01-30T09:50:22;100962.56;;;6.43;84.62
3444;BME280;1736;52.068;6.968;2023-01-30T09:52:59;100969.44;;;6.46;84.80
3444;BME280;1736;52.068;6.968;2023-01-30T09:55:29;100973.88;;;6.45;85.67
3444;BME280;1736;52.068;6.968;2023-01-30T09:57:59;100971.03;;;6.48;84.69
3444;BME280;1736;52.068;6.968;2023-01-30T10:00:29;100965.97;;;6.45;84.90
3444;BME280;1736;52.068;6.968;2023-01-30T10:03:04;100977.16;;;6.49;85.05
3444;BME280;1736;52.068;6.968;2023-01-30T10:05:37;100972.53;;;6.52;84.59
3444;BME280;1736;52.068;6.968;2023-01-30T10:08:20;100982.16;;;6.53;83.72
3444;BME280;1736;52.068;6.968;2023-01-30T10:10:54;100983.28;;;6.49;83.24
3444;BME280;1736;52.068;6.968;2023-01-30T10:13:36;100974.44;;;6.50;82.96
3444;BME280;1736;52.068;6.968;2023-01-30T10:16:12;100969.16;;;6.50;83.08
3444;BME280;1736;52.068;6.968;2023-01-30T10:19:14;100969.53;;;6.58;82.09
3444;BME280;1736;52.068;6.968;2023-01-30T10:21:46;100967.94;;;6.56;83.74
3444;BME280;1736;52.068;6.968;2023-01-30T10:24:30;100980.53;;;6.51;83.55
3444;BME280;1736;52.068;6.968;2023-01-30T10:27:01;100970.94;;;6.50;84.77
3444;BME280;1736;52.068;6.968;2023-01-30T10:29:31;100976.31;;;6.48;83.91
3444;BME280;1736;52.068;6.968;2023-01-30T10:32:01;100976.97;;;6.52;83.02
3444;BME280;1736;52.068;6.968;2023-01-30T10:34:34;100990.25;;;6.50;84.66
3444;BME280;1736;52.068;6.968;2023-01-30T10:37:05;100994.75;;;6.48;83.03
3444;BME280;1736;52.068;6.968;2023-01-30T10:39:40;100988.19;;;6.55;83.61
3444;BME280;1736;52.068;6.968;2023-01-30T10:42:09;100987.31;;;6.55;83.71
3444;BME280;1736;52.068;6.968;2023-01-30T10:44:37;100994.38;;;6.68;82.21
3444;BME280;1736;52.068;6.968;2023-01-30T10:47:22;100974.78;;;6.72;82.19
3444;BME280;1736;52.068;6.968;2023-01-30T10:49:53;100997.00;;;6.82;82.17
3444;BME280;1736;52.068;6.968;2023-01-30T10:52:28;100972.94;;;6.87;80.78
3444;BME280;1736;52.068;6.968;2023-01-30T10:55:09;100968.72;;;6.84;80.59
3444;BME280;1736;52.068;6.968;2023-01-30T10:57:51;100979.63;;;6.92;80.98
3444;BME280;1736;52.068;6.968;2023-01-30T11:00:27;101002.16;;;6.98;79.51
3444;BME280;1736;52.068;6.968;2023-01-30T11:03:07;100997.31;;;7.04;78.64
3444;BME280;1736;52.068;6.968;2023-01-30T11:05:41;100999.66;;;7.09;77.83
3444;BME280;1736;52.068;6.968;2023-01-30T11:08:17;100983.94;;;7.07;78.74
3444;BME280;1736;52.068;6.968;2023-01-30T11:10:45;100998.19;;;7.05;78.12
3444;BME280;1736;52.068;6.968;2023-01-30T11:13:16;100998.97;;;6.93;76.36
3444;BME280;1736;52.068;6.968;2023-01-30T11:15:44;100987.09;;;6.86;76.55
3444;BME280;1736;52.068;6.968;2023-01-30T11:18:12;100992.81;;;6.92;76.42
3444;BME280;1736;52.068;6.968;2023-01-30T11:20:40;101000.47;;;6.97;77.09
3444;BME280;1736;52.068;6.968;2023-01-30T11:23:22;100980.19;;;6.97;77.94
3444;BME280;1736;52.068;6.968;2023-01-30T11:25:53;100990.09;;;7.20;75.73
3444;BME280;1736;52.068;6.968;2023-01-30T11:28:20;100974.66;;;7.41;75.05
3444;BME280;1736;52.068;6.968;2023-01-30T11:30:52;100987.97;;;7.39;74.95
3444;BME280;1736;52.068;6.968;2023-01-30T11:33:19;100988.09;;;7.50;75.54
3444;BME280;1736;52.068;6.968;2023-01-30T11:35:53;101002.00;;;7.40;73.86
3444;BME280;1736;52.068;6.968;2023-01-30T11:38:22;100996.97;;;7.49;74.85
3444;BME280;1736;52.068;6.968;2023-01-30T11:41:00;100989.84;;;7.37;75.03
3444;BME280;1736;52.068;6.968;2023-01-30T11:43:27;101001.16;;;7.39;74.28
3444;BME280;1736;52.068;6.968;2023-01-30T11:45:54;101005.06;;;7.46;74.37
3444;BME280;1736;52.068;6.968;2023-01-30T11:48:25;100991.34;;;7.41;75.10
3444;BME280;1736;52.068;6.968;2023-01-30T11:50:56;100995.34;;;7.34;75.12
3444;BME280;1736;52.068;6.968;2023-01-30T11:53:29;101000.81;;;7.31;74.85
3444;BME280;1736;52.068;6.968;2023-01-30T11:56:04;100998.72;;;7.36;74.96
3444;BME280;1736;52.068;6.968;2023-01-30T11:58:35;101003.59;;;7.42;75.70
3444;BME280;1736;52.068;6.968;2023-01-30T12:01:03;101005.06;;;7.34;76.77
3444;BME280;1736;52.068;6.968;2023-01-30T12:03:31;101018.25;;;7.34;76.87
3444;BME280;1736;52.068;6.968;2023-01-30T12:05:58;101011.75;;;7.25;76.22
3444;BME280;1736;52.068;6.968;2023-01-30T12:08:27;101017.72;;;7.29;76.35
3444;BME280;1736;52.068;6.968;2023-01-30T12:10:59;101024.03;;;7.26;77.52
3444;BME280;1736;52.068;6.968;2023-01-30T12:13:32;101016.50;;;7.20;75.43
3444;BME280;1736;52.068;6.968;2023-01-30T12:16:16;101024.47;;;7.33;75.39
3444;BME280;1736;52.068;6.968;2023-01-30T12:18:50;101030.81;;;7.30;75.64
3444;BME280;1736;52.068;6.968;2023-01-30T12:21:35;101036.09;;;7.30;75.64
3444;BME280;1736;52.068;6.968;2023-01-30T12:24:12;101024.41;;;7.34;74.67
3444;BME280;1736;52.068;6.968;2023-01-30T12:26:44;101042.66;;;7.37;73.38
3444;BME280;1736;52.068;6.968;2023-01-30T12:29:22;101017.72;;;7.29;72.96
3444;BME280;1736;52.068;6.968;2023-01-30T12:31:56;101014.97;;;7.30;74.02
3444;BME280;1736;52.068;6.968;2023-01-30T12:34:26;101028.63;;;7.37;73.00
3444;BME280;1736;52.068;6.968;2023-01-30T12:36:57;101031.03;;;7.40;73.30
3444;BME280;1736;52.068;6.968;2023-01-30T12:39:39;101018.28;;;7.46;73.88
3444;BME280;1736;52.068;6.968;2023-01-30T12:42:22;101044.16;;;7.41;72.94
3444;BME280;1736;52.068;6.968;2023-01-30T12:45:00;101012.16;;;7.46;71.39
3444;BME280;1736;52.068;6.968;2023-01-30T12:47:47;101038.66;;;7.44;72.28
3444;BME280;1736;52.068;6.968;2023-01-30T12:50:26;101040.34;;;7.45;73.00
3444;BME280;1736;52.068;6.968;2023-01-30T12:53:16;101041.03;;;7.49;73.06
3444;BME280;1736;52.068;6.968;2023-01-30T12:55:52;101033.75;;;7.52;73.49
3444;BME280;1736;52.068;6.968;2023-01-30T12:58:27;101029.00;;;7.57;74.39
3444;BME280;1736;52.068;6.968;2023-01-30T13:01:05;101032.78;;;7.53;73.43
3444;BME280;1736;52.068;6.968;2023-01-30T13:03:40;101043.19;;;7.42;73.48
3444;BME280;1736;52.068;6.968;2023-01-30T13:06:24;101050.44;;;7.53;73.40
3444;BME280;1736;52.068;6.968;2023-01-30T13:09:05;101035.38;;;7.67;72.65
3444;BME280;1736;52.068;6.968;2023-01-30T13:11:54;101050.28;;;7.68;73.38
3444;BME280;1736;52.068;6.968;2023-01-30T13:14:32;101048.50;;;7.69;72.67
3444;BME280;1736;52.068;6.968;2023-01-30T13:17:08;101050.38;;;7.67;72.12
3444;BME280;1736;52.068;6.968;2023-01-30T13:19:43;101057.78;;;7.74;71.41
3444;BME280;1736;52.068;6.968;2023-01-30T13:22:16;101056.09;;;7.73;72.55
3444;BME280;1736;52.068;6.968;2023-01-30T13:24:53;101056.53;;;7.80;71.98
3444;BME280;1736;52.068;6.968;2023-01-30T13:27:26;101054.41;;;7.72;71.62
3444;BME280;1736;52.068;6.968;2023-01-30T13:29:57;101056.50;;;7.67;71.86
3444;BME280;1736;52.068;6.968;2023-01-30T13:32:33;101084.97;;;7.50;74.91
3444;BME280;1736;52.068;6.968;2023-01-30T13:35:03;101094.34;;;7.27;76.67
3444;BME280;1736;52.068;6.968;2023-01-30T13:37:33;101060.00;;;7.01;79.13